Terminal Aerodrome Forecast
Issued by NWS Sioux Falls, SD

Home | Current Version | Previous Version | Graphics & Text | Print | Product List | Glossary On
Versions: 1 2 3 4 5 6 7 8 9 10 11 12 13 14 15 16 17 18 19 20 21 22 23 24 25 26 27 28 29 30
000
FTUS43 KFSD 151430 AAA
TAFSUX
TAF AMD
KSUX 151430Z 1515/1612 34013KT 6SM -RA BR OVC012
      TEMPO 1515/1517 4SM RA BR OVC050
     FM151700 33019G26KT 5SM BR OVC009
     FM152130 33022G30KT 2SM -SN OVC010
      TEMPO 1522/1524 1SM -SN BR VV007
     FM160200 33024G33KT 4SM -SN OVC010
     FM160500 33023G31KT P6SM OVC012=

USA.gov is the U.S. government's official web portal to all federal, state and local government web resources and services.